Ardmore Seamaster — V7UU8 — position and weather

sailwx.info

Track history (hours):
 
Tides and Currents Weather Stations Pressure Air Temp Water Temp Dewpoint Dewpoint Depression Visibility Wind Speed Wind Dir Waves Ship Positions

Ardmore Seamaster

Last reported at 2016-Aug-17 11:07 UTC. Time now 2016-Aug-27 02:53 UTC.
Position N 29°14' W 094°37'.
Warning: this ship's position is 9 days out of date.

Length 179 m; draft 7 m.

Type: Tanker. MMSI: 538004102.

Date/timePositionNaut miles runAvg speedWind from/ knotsBaromVisibWave heightAir tempDewpointWater temp
2016-Aug-17 11:07N 29°14' W 094°37'9 5.2
2016-Aug-17 09:20N 29°21' W 094°45'7 8.7
2016-Aug-17 08:33N 29°26' W 094°50'1110.7
2016-Aug-17 07:33N 29°35' W 094°56'10 9.6
2016-Aug-17 06:33N 29°43' W 095°01'5 5.1
2016-Aug-17 05:34N 29°44' W 095°07'0 0.0
2016-Aug-15 02:32N 29°44' W 095°07'5 5.2
2016-Aug-15 01:33N 29°44' W 095°01'9 9.2
2016-Aug-15 00:33N 29°36' W 094°56'1111.1
2016-Aug-14 23:32N 29°26' W 094°50'9 9.2
2016-Aug-14 22:30N 29°20' W 094°41'  
Track history (hours):
 
Tides and Currents Weather Stations Pressure Air Temp Water Temp Dewpoint Dewpoint Depression Visibility Wind Speed Wind Dir Waves Ship Positions

Ardmore Seamaster

Last reported at 2016-Aug-17 11:07 UTC. Time now 2016-Aug-27 02:53 UTC.
Position N 29°14' W 094°37'.
Warning: this ship's position is 9 days out of date.

Length 179 m; draft 7 m.

Type: Tanker. MMSI: 538004102.

Date/timePositionNaut miles runAvg speedWind from/ knotsBaromVisibWave heightAir tempDewpointWater temp
2016-Aug-17 11:07N 29°14' W 094°37'9 5.2
2016-Aug-17 09:20N 29°21' W 094°45'7 8.7
2016-Aug-17 08:33N 29°26' W 094°50'1110.7
2016-Aug-17 07:33N 29°35' W 094°56'10 9.6
2016-Aug-17 06:33N 29°43' W 095°01'5 5.1
2016-Aug-17 05:34N 29°44' W 095°07'0 0.0
2016-Aug-15 02:32N 29°44' W 095°07'5 5.2
2016-Aug-15 01:33N 29°44' W 095°01'9 9.2
2016-Aug-15 00:33N 29°36' W 094°56'1111.1
2016-Aug-14 23:32N 29°26' W 094°50'9 9.2
2016-Aug-14 22:30N 29°20' W 094°41'  

Dump ship's entire track history